West Leroy, Pennsylvania
Current Conditions -  °F | °C
As of 1:35 PM on Saturday 25 Oct 2014 (Local Time) from KN38 Reporting Station
Broken Clouds Broken Clouds  
Wind Chill: 61°   Ceiling: 8500
Heat Index: 61°   Visibility: 10mi
Dew Point: 43°   Wind: 21mph
Humidity: 52%   Direction: 250°WSW
Pressure: 29.76"   Gusts: 30mph
Location:  41.669°N, 76.8999°W
Report Text: KN38 251735Z AUTO 25018G26KT 10SM BKN085 16/06 A2976 RMK AO2
Loading
Personal Weather Stations






























Interactive Weather Map
Tropical Storm Tracking
New forecast layout! Learn more

10-Day Weather Forecast

Advertisements
Track Severe Weather on mobile